createdAt,value
2023-02-14T00:00:23.961Z,25.10
2023-02-14T00:05:23.968Z,25.30
2023-02-14T00:10:24.093Z,25.50
2023-02-14T00:15:24.428Z,26.00
2023-02-14T00:20:25.359Z,25.90
2023-02-14T00:25:24.381Z,26.10
2023-02-14T00:35:23.952Z,25.50
2023-02-14T00:40:23.975Z,25.70
2023-02-14T00:55:24.053Z,26.10
2023-02-14T01:15:24.074Z,26.10
2023-02-14T01:20:24.845Z,26.10
2023-02-14T01:25:24.469Z,26.00
2023-02-14T01:30:24.429Z,26.10
2023-02-14T01:40:24.108Z,26.10
2023-02-14T01:55:28.057Z,26.10
2023-02-14T02:15:26.198Z,26.10
2023-02-14T02:30:35.851Z,26.10
2023-02-14T02:45:28.764Z,26.10
2023-02-14T02:50:45.321Z,26.10
2023-02-14T02:55:42.062Z,26.10
2023-02-14T03:10:28.063Z,26.10
2023-02-14T03:15:34.350Z,26.10
2023-02-14T03:20:41.465Z,26.10
2023-02-14T03:25:39.042Z,26.10
2023-02-14T03:35:41.648Z,26.10
2023-02-14T03:40:29.659Z,26.10
2023-02-14T03:45:31.515Z,26.10
2023-02-14T04:05:26.765Z,26.10
2023-02-14T04:10:25.786Z,26.10
2023-02-14T04:15:24.606Z,26.10
2023-02-14T04:25:25.053Z,26.10
2023-02-14T04:35:24.650Z,26.10
2023-02-14T04:55:24.632Z,26.10
2023-02-14T05:00:24.916Z,26.10
2023-02-14T05:05:24.654Z,26.10
2023-02-14T05:20:24.661Z,26.10
2023-02-14T05:35:24.779Z,26.10
2023-02-14T06:00:25.030Z,26.10
2023-02-14T06:10:25.149Z,26.10
2023-02-14T06:15:25.224Z,26.10
2023-02-14T06:20:24.891Z,26.10
2023-02-14T06:25:25.668Z,26.10
2023-02-14T06:30:25.201Z,26.10
2023-02-14T06:35:24.903Z,26.10
2023-02-14T06:55:24.898Z,26.10
2023-02-14T07:05:24.933Z,26.10
2023-02-14T07:10:25.038Z,26.10
2023-02-14T07:15:25.344Z,26.10
2023-02-14T07:25:27.280Z,26.10
2023-02-14T07:30:25.155Z,26.10
2023-02-14T07:35:25.053Z,26.10
2023-02-14T07:40:25.064Z,26.10
2023-02-14T07:50:25.043Z,26.10
2023-02-14T08:00:25.668Z,26.10
2023-02-14T08:05:25.305Z,26.10
2023-02-14T08:10:25.096Z,26.10
2023-02-14T08:15:36.257Z,26.10
2023-02-14T08:30:25.193Z,26.10
2023-02-14T08:35:26.200Z,26.10
2023-02-14T08:45:25.432Z,26.10
2023-02-14T08:55:26.648Z,26.10
2023-02-14T09:00:25.332Z,26.10
2023-02-14T09:15:25.302Z,26.10
2023-02-14T09:25:25.324Z,26.10
2023-02-14T09:30:25.562Z,26.10
2023-02-14T09:35:35.300Z,26.10
2023-02-14T09:40:25.284Z,26.10
2023-02-14T09:45:27.744Z,26.10
2023-02-14T09:50:33.393Z,26.10
2023-02-14T09:55:33.832Z,26.10
2023-02-14T10:00:34.230Z,26.10
2023-02-14T10:05:29.357Z,26.10
2023-02-14T10:15:30.533Z,26.10
2023-02-14T10:20:29.461Z,26.10
2023-02-14T10:25:30.135Z,26.10
2023-02-14T10:30:25.695Z,26.10
2023-02-14T10:40:36.468Z,26.10
2023-02-14T10:45:34.866Z,26.10
2023-02-14T10:50:33.081Z,26.10
2023-02-14T10:55:32.691Z,21.10
2023-02-14T11:00:31.905Z,11.30
2023-02-14T11:05:31.737Z,4.90
2023-02-14T11:10:29.730Z,21.30
2023-02-14T11:15:31.367Z,13.70
2023-02-14T11:20:29.496Z,8.60
2023-02-14T11:25:27.070Z,8.10
2023-02-14T11:30:33.276Z,4.60
2023-02-14T11:35:33.379Z,4.40
2023-02-14T11:40:30.338Z,2.90
2023-02-14T11:45:37.042Z,3.70
2023-02-14T11:50:25.964Z,25.50
2023-02-14T11:55:29.702Z,25.50
2023-02-14T12:00:26.986Z,25.50
2023-02-14T12:05:29.845Z,1.40
2023-02-14T12:10:34.775Z,25.50
2023-02-14T12:15:28.071Z,24.90
2023-02-14T12:20:37.332Z,24.60
2023-02-14T12:25:37.134Z,25.30
2023-02-14T12:30:29.447Z,24.70
2023-02-14T12:35:35.688Z,1.00
2023-02-14T12:40:38.039Z,23.80
2023-02-14T12:45:43.924Z,24.60
2023-02-14T12:50:33.034Z,1.00
2023-02-14T12:55:40.385Z,1.30
2023-02-14T13:00:38.186Z,2.00
2023-02-14T13:05:32.850Z,2.00
2023-02-14T13:10:35.823Z,3.00
2023-02-14T13:15:33.983Z,5.40
2023-02-14T13:20:38.352Z,10.10
2023-02-14T13:25:32.527Z,13.90
2023-02-14T13:30:31.106Z,18.30
2023-02-14T13:35:27.964Z,18.90
2023-02-14T13:40:28.126Z,22.80
2023-02-14T13:45:29.515Z,25.30
2023-02-14T13:50:26.024Z,24.60
2023-02-14T13:55:33.233Z,2.60
2023-02-14T14:00:37.233Z,3.50
2023-02-14T14:10:44.930Z,5.90
2023-02-14T14:15:26.156Z,3.90
2023-02-14T14:20:26.629Z,5.10
2023-02-14T14:25:29.874Z,5.30
2023-02-14T14:30:31.937Z,5.80
2023-02-14T14:35:26.192Z,7.40
2023-02-14T14:45:28.843Z,7.90
2023-02-14T14:50:29.839Z,6.80
2023-02-14T14:55:30.610Z,6.80
2023-02-14T15:00:28.853Z,8.80
2023-02-14T15:10:29.158Z,10.50
2023-02-14T15:15:26.295Z,11.00
2023-02-14T15:20:26.534Z,10.80
2023-02-14T15:25:30.774Z,11.90
2023-02-14T15:30:28.642Z,15.70
2023-02-14T15:35:29.608Z,17.00
2023-02-14T15:40:30.176Z,19.20
2023-02-14T15:45:26.818Z,18.20
2023-02-14T15:50:30.288Z,16.40
2023-02-14T15:55:26.913Z,19.40
2023-02-14T16:00:26.651Z,18.80
2023-02-14T16:05:26.591Z,19.30
2023-02-14T16:10:28.414Z,20.80
2023-02-14T16:20:37.911Z,22.60
2023-02-14T16:25:26.386Z,22.90
2023-02-14T16:30:26.425Z,22.40
2023-02-14T16:35:26.494Z,23.30
2023-02-14T16:40:27.192Z,22.00
2023-02-14T16:45:26.466Z,23.60
2023-02-14T16:50:26.702Z,23.40
2023-02-14T16:55:28.982Z,23.50
2023-02-14T17:00:27.350Z,23.10
2023-02-14T17:05:27.467Z,25.90
2023-02-14T17:10:27.471Z,25.30
2023-02-14T17:15:27.718Z,7.60
2023-02-14T17:20:27.947Z,17.30
2023-02-14T17:25:26.558Z,20.60
2023-02-14T17:30:26.745Z,17.70
2023-02-14T17:35:26.649Z,17.00
2023-02-14T17:45:26.664Z,15.50
2023-02-14T17:50:26.636Z,15.00
2023-02-14T17:55:26.728Z,13.90
2023-02-14T18:00:26.713Z,10.70
2023-02-14T18:05:26.687Z,12.50
2023-02-14T18:10:26.745Z,12.90
2023-02-14T18:15:27.314Z,14.60
2023-02-14T18:20:26.709Z,14.30
2023-02-14T18:25:26.686Z,15.80
2023-02-14T18:40:27.143Z,16.00
2023-02-14T18:45:26.785Z,16.60
2023-02-14T18:55:27.798Z,16.80
2023-02-14T19:00:31.175Z,16.80
2023-02-14T19:05:27.078Z,16.60
2023-02-14T19:10:26.849Z,16.50
2023-02-14T19:15:27.180Z,17.10
2023-02-14T19:30:27.133Z,17.30
2023-02-14T19:35:26.956Z,17.60
2023-02-14T19:45:31.307Z,17.80
2023-02-14T20:00:27.112Z,17.40
2023-02-14T20:05:27.702Z,18.20
2023-02-14T20:10:27.138Z,18.60
2023-02-14T20:25:27.109Z,19.30
2023-02-14T20:30:27.107Z,18.80
2023-02-14T20:35:27.033Z,19.80
2023-02-14T20:40:27.151Z,19.30
2023-02-14T20:50:27.067Z,19.10
2023-02-14T20:55:27.508Z,19.40
2023-02-14T21:15:27.208Z,19.60
2023-02-14T21:35:27.214Z,19.60
2023-02-14T21:40:27.219Z,19.80
2023-02-14T21:45:37.138Z,20.50
2023-02-14T21:55:27.255Z,21.10
2023-02-14T22:10:28.502Z,21.20
2023-02-14T22:20:27.334Z,20.80
2023-02-14T22:25:27.362Z,21.10
2023-02-14T22:35:28.224Z,21.60
2023-02-14T22:40:27.363Z,21.90
2023-02-14T22:55:27.805Z,22.70
2023-02-14T23:15:37.521Z,22.40
2023-02-14T23:30:27.614Z,22.40
2023-02-14T23:40:27.527Z,22.10
2023-02-14T23:45:34.619Z,22.10
2023-02-14T23:50:27.511Z,22.50
